Aklavik, Canada
Current Conditions -  °F | °C
As of 9:00 AM on Thursday 29 Jan 2015 (Local Time) from CYEV Reporting Station
Broken Clouds Broken Clouds  
Wind Chill: -18°   Ceiling: 1700
Heat Index: -18°   Visibility: 15mi
Dew Point: -24°   Wind: 2mph
Humidity: 76%   Direction: 320°NW
Pressure: 30.55"   Gusts: NA
Location:  68.22°N, 135°W
Report Text: CYEV 291600Z 32002KT 15SM BKN017 M28/M31 A3055 RMK SC7 SLP356
Loading
Personal Weather Stations






























Interactive Weather Map New forecast layout! Learn more

10-Day Weather Forecast

Advertisements
Track Severe Weather on mobile